地図

経路データ

SID SEASON NUMBER BASIN SUBBASIN NAME ISO_TIME NATURE LAT LON WMO_WIND WMO_PRES WMO_AGENCY TRACK_TYPE DIST2LAND LANDFALL IFLAG USA_AGENCY USA_ATCF_ID USA_LAT USA_LON USA_RECORD USA_STATUS USA_WIND USA_PRES USA_SSHS USA_R34_NE USA_R34_SE USA_R34_SW USA_R34_NW USA_R50_NE USA_R50_SE USA_R50_SW USA_R50_NW USA_R64_NE USA_R64_SE USA_R64_SW USA_R64_NW USA_POCI USA_ROCI USA_RMW USA_EYE TOKYO_LAT TOKYO_LON TOKYO_GRADE TOKYO_WIND TOKYO_PRES TOKYO_R50_DIR TOKYO_R50_LONG TOKYO_R50_SHORT TOKYO_R30_DIR TOKYO_R30_LONG TOKYO_R30_SHORT TOKYO_LAND CMA_LAT CMA_LON CMA_CAT CMA_WIND CMA_PRES HKO_LAT HKO_LON HKO_CAT HKO_WIND HKO_PRES NEWDELHI_LAT NEWDELHI_LON NEWDELHI_GRADE NEWDELHI_WIND NEWDELHI_PRES NEWDELHI_CI NEWDELHI_DP NEWDELHI_POCI REUNION_LAT REUNION_LON REUNION_TYPE REUNION_WIND REUNION_PRES REUNION_TNUM REUNION_CI REUNION_RMW REUNION_R34_NE REUNION_R34_SE REUNION_R34_SW REUNION_R34_NW REUNION_R50_NE REUNION_R50_SE REUNION_R50_SW REUNION_R50_NW REUNION_R64_NE REUNION_R64_SE REUNION_R64_SW REUNION_R64_NW BOM_LAT BOM_LON BOM_TYPE BOM_WIND BOM_PRES BOM_TNUM BOM_CI BOM_RMW BOM_R34_NE BOM_R34_SE BOM_R34_SW BOM_R34_NW BOM_R50_NE BOM_R50_SE BOM_R50_SW BOM_R50_NW BOM_R64_NE BOM_R64_SE BOM_R64_SW BOM_R64_NW BOM_ROCI BOM_POCI BOM_EYE BOM_POS_METHOD BOM_PRES_METHOD NADI_LAT NADI_LON NADI_CAT NADI_WIND NADI_PRES WELLINGTON_LAT WELLINGTON_LON WELLINGTON_WIND WELLINGTON_PRES DS824_LAT DS824_LON DS824_STAGE DS824_WIND DS824_PRES TD9636_LAT TD9636_LON TD9636_STAGE TD9636_WIND TD9636_PRES TD9635_LAT TD9635_LON TD9635_WIND TD9635_PRES TD9635_ROCI NEUMANN_LAT NEUMANN_LON NEUMANN_CLASS NEUMANN_WIND NEUMANN_PRES MLC_LAT MLC_LON MLC_CLASS MLC_WIND MLC_PRES USA_GUST BOM_GUST BOM_GUST_PER REUNION_GUST REUNION_GUST_PER USA_SEAHGT USA_SEARAD_NE USA_SEARAD_SE USA_SEARAD_SW USA_SEARAD_NW STORM_SPEED STORM_DIR
2013324N07103 2013 94 WP MM LEHAR 2013-11-19 18:00:00 NR 7.30000 103.300 main 167 134 O_____________ jtwc_io IO052013 7.30000 103.300 DB 15 1010 -3 1009 180 30 7 191
2013324N07103 2013 94 WP MM LEHAR 2013-11-19 21:00:00 NR 6.97748 103.235 main 134 110 P_____________ IO052013 6.97748 103.235 DB 15 1010 -3 1009 180 30 5 202
2013324N07103 2013 94 WP MM LEHAR 2013-11-20 00:00:00 NR 6.80000 103.100 main 110 95 O_____________ jtwc_io IO052013 6.80000 103.100 DB 15 1010 -3 1009 180 30 4 250
2013324N07103 2013 94 WP MM LEHAR 2013-11-20 03:00:00 NR 6.84254 102.858 main 95 90 P_____________ IO052013 6.84254 102.858 DB 17 1008 -3 1009 180 30 5 281
2013324N07103 2013 94 WP MM LEHAR 2013-11-20 06:00:00 NR 6.90000 102.600 main 92 65 O_____________ jtwc_io IO052013 6.90000 102.600 DB 20 1007 -3 1009 180 30 4 254
2013324N07103 2013 94 WP MM LEHAR 2013-11-20 09:00:00 NR 6.72248 102.435 main 65 40 P_____________ IO052013 6.72248 102.435 DB 20 1007 -3 1009 180 30 5 217
2013324N07103 2013 94 WP MM LEHAR 2013-11-20 12:00:00 NR 6.50000 102.300 main 40 24 O_____________ jtwc_io IO052013 6.50000 102.300 DB 20 1007 -3 1009 180 30 5 219
2013324N07103 2013 94 WP MM LEHAR 2013-11-20 15:00:00 NR 6.37000 102.150 main 24 11 P_____________ IO052013 6.37000 102.150 DB 17 1008 -3 1009 180 30 4 236
2013324N07103 2013 94 WP MM LEHAR 2013-11-20 18:00:00 NR 6.30000 102.000 main 11 0 O_____________ jtwc_io IO052013 6.30000 102.000 DB 15 1010 -3 1009 180 30 3 252
2013324N07103 2013 94 WP MM LEHAR 2013-11-20 21:00:00 NR 6.27748 101.865 main 0 0 P_____________ IO052013 6.27748 101.865 DB 15 1010 -3 1009 180 30 3 270
2013324N07103 2013 94 WP MM LEHAR 2013-11-21 00:00:00 NR 6.30000 101.700 main 0 0 O_____________ jtwc_io IO052013 6.30000 101.700 DB 15 1010 -3 1009 180 30 4 277
2013324N07103 2013 94 WP MM LEHAR 2013-11-21 03:00:00 NR 6.32750 101.472 main 0 0 P_____________ IO052013 6.32750 101.472 DB 15 1010 -3 1009 180 30 5 281
2013324N07103 2013 94 WP MM LEHAR 2013-11-21 06:00:00 NR 6.40000 101.200 main 0 0 O_____________ jtwc_io IO052013 6.40000 101.200 DB 15 1010 -3 1009 180 30 6 293
2013324N07103 2013 94 WP MM LEHAR 2013-11-21 09:00:00 NR 6.55748 100.915 main 0 0 P_____________ IO052013 6.55748 100.915 DB 15 1010 -3 1009 180 30 7 297
2013324N07103 2013 94 WP MM LEHAR 2013-11-21 12:00:00 NR 6.70000 100.600 main 0 0 O_____________ jtwc_io IO052013 6.70000 100.600 DB 15 1010 -3 1009 180 30 7 284
2013324N07103 2013 94 WP MM LEHAR 2013-11-21 15:00:00 NR 6.73002 100.242 main 0 0 P_____________ IO052013 6.73002 100.242 DB 15 1010 -3 1009 180 30 7 270
2013324N07103 2013 94 NI BB LEHAR 2013-11-21 18:00:00 NR 6.70000 99.9000 main 0 0 O_____________ jtwc_io IO052013 6.70000 99.9000 DB 15 1010 -3 1009 180 30 6 265
2013324N07103 2013 94 NI BB LEHAR 2013-11-21 21:00:00 NR 6.67247 99.6275 main 24 24 P_____________ IO052013 6.67247 99.6275 DB 17 1007 -3 1009 180 30 5 259
2013324N07103 2013 94 NI BB LEHAR 2013-11-22 00:00:00 NR 6.60000 99.4000 main 47 47 O_____________ jtwc_io IO052013 6.60000 99.4000 DB 20 1004 -3 1009 180 30 5 242
2013324N07103 2013 94 NI BB LEHAR 2013-11-22 03:00:00 NR 6.44247 99.2000 main 78 78 P_____________ IO052013 6.44247 99.2000 DB 20 1005 -3 1009 180 30 5 233
2013324N07103 2013 94 NI BB LEHAR 2013-11-22 06:00:00 NR 6.30000 99.0000 main 102 102 O_____________ jtwc_io IO052013 6.30000 99.0000 DB 20 1007 -3 1009 180 30 5 246
2013324N07103 2013 94 NI BB LEHAR 2013-11-22 09:00:00 NR 6.24002 98.7350 main 135 135 P_____________ IO052013 6.24002 98.7350 DB 20 1007 -3 1009 180 30 5 270
2013324N07103 2013 94 NI BB LEHAR 2013-11-22 12:00:00 NR 6.30000 98.5000 main 148 141 O_____________ jtwc_io IO052013 6.30000 98.5000 DB 20 1007 -3 1009 180 30 4 309
2013324N07103 2013 94 NI BB LEHAR 2013-11-22 15:00:00 NR 6.51246 98.4000 main 142 127 P_____________ IO052013 6.51246 98.4000 DB 22 1005 -3 1008 180 35 5 338
2013324N07103 2013 94 NI BB LEHAR 2013-11-22 18:00:00 TS 6.80000 98.3000 main 127 118 O_____________ jtwc_io IO052013 6.80000 98.3000 TD 25 1004 -1 1008 180 40 6 329
2013324N07103 2013 94 NI BB LEHAR 2013-11-22 21:00:00 TS 7.03500 98.0800 main 126 111 P_____________ IO052013 7.03500 98.0800 TD 25 1004 -1 1008 180 40 7 315
2013324N07103 2013 94 NI BB LEHAR 2013-11-23 00:00:00 TS 7.30000 97.8000 main 111 102 O_____________ jtwc_io IO052013 7.30000 97.8000 TD 25 1004 -1 1008 180 40 8 317
2013324N07103 2013 94 NI BB LEHAR 2013-11-23 03:00:00 TS 7.63500 97.5075 main 110 104 P_____________ IO052013 7.63500 97.5075 TD 25 1004 -1 1008 180 40 9 320
2013324N07103 2013 94 NI BB LEHAR 2013-11-23 06:00:00 TS 8.00000 97.2000 main 123 123 O_____________ jtwc_io IO052013 8.00000 97.2000 TD 25 1004 -1 1008 180 40 9 320
2013324N07103 2013 94 NI BB LEHAR 2013-11-23 09:00:00 TS 8.34999 96.8925 main 154 154 P_____________ IO052013 8.34999 96.8925 TD 30 1000 -1 1008 185 40 9 317
2013324N07103 2013 94 NI BB LEHAR 2013-11-23 12:00:00 TS 8.66000 96.5800 25 1004 newdelhi main 187 187 O___O_________ jtwc_io IO052013 8.70000 96.6000 TS 35 996 0 1008 190 40 8.50000 96.5000 D 25 1004 1.50000 3 8 317
2013324N07103 2013 94 NI BB LEHAR 2013-11-23 15:00:00 TS 8.92648 96.3499 main 219 219 P___P_________ IO052013 9.05743 96.3574 TS 35 996 0 1007 180 37 8.66459 96.3348 D 27 1003 4 8 318
2013324N07103 2013 94 NI BB LEHAR 2013-11-23 18:00:00 TS 9.22857 96.0571 30 1002 newdelhi main 244 244 O___O_________ jtwc_io IO052013 9.40000 96.1000 TS 35 996 0 1007 170 35 9.00000 96.0000 DD 30 1002 2.00000 5 10 314
2013324N07103 2013 94 NI BB LEHAR 2013-11-23 21:00:00 TS 9.63797 95.6024 main 306 306 P___P_________ IO052013 9.70748 95.7724 TS 37 994 0 1007 170 35 9.56846 95.4324 DD 32 1000 6 11 312
2013324N07103 2013 94 NI BB LEHAR 2013-11-24 00:00:00 TS 10.0000 95.2000 35 999 newdelhi main 361 361 O___O_________ jtwc_io IO052013 10.0000 95.4000 TS 40 993 0 30 30 30 30 1007 170 35 10.0000 95.0000 CS 35 999 2.50000 7 8 311
2013324N07103 2013 94 NI BB LEHAR 2013-11-24 03:00:00 TS 10.1575 95.0000 40 998 newdelhi main 383 383 P___O_________ IO052013 10.3150 95.0000 TS 42 991 0 30 30 32 32 1007 175 35 10.0000 95.0000 CS 40 998 2.50000 8 8 311
2013324N07103 2013 94 NI BB LEHAR 2013-11-24 06:00:00 TS 10.5500 94.5500 40 998 newdelhi main 426 426 O___O_________ jtwc_io IO052013 10.6000 94.6000 TS 45 989 0 30 30 35 35 1007 180 35 10.5000 94.5000 CS 40 998 2.50000 8 11 305
2013324N07103 2013 94 NI BB LEHAR 2013-11-24 09:00:00 TS 10.7575 94.1175 45 996 newdelhi main 481 481 P___O_________ IO052013 10.8150 94.2349 TS 47 987 0 37 37 42 42 1007 185 30 10.7000 94.0000 CS 45 996 3.00000 10 10 298
2013324N07103 2013 94 NI BB LEHAR 2013-11-24 12:00:00 TS 11.0000 93.7000 45 996 newdelhi main 526 526 O___O_________ jtwc_io IO052013 11.0000 93.9000 TS 50 985 0 45 45 50 50 1007 190 25 11.0000 93.5000 CS 45 996 3.00000 10 7 302
2013324N07103 2013 94 NI BB LEHAR 2013-11-24 15:00:00 TS 11.1037 93.5462 45 996 newdelhi main 535 506 P___O_________ IO052013 11.2074 93.5925 TS 52 983 0 57 50 52 60 1007 195 20 11.0000 93.5000 CS 45 996 3.00000 10 7 310
2013324N07103 2013 94 NI BB LEHAR 2013-11-24 18:00:00 TS 11.4500 93.1500 45 996 newdelhi main 498 498 O___O_________ jtwc_io IO052013 11.4000 93.3000 TS 55 982 0 70 55 55 70 30 30 30 30 1008 200 15 11.5000 93.0000 CS 45 996 3.00000 10 9 299
2013324N07103 2013 94 NI BB LEHAR 2013-11-24 21:00:00 TS 11.5325 92.7462 45 996 newdelhi main 515 484 P___O_________ IO052013 11.5650 92.9925 TS 57 980 0 70 55 55 70 30 30 30 30 1008 200 15 11.5000 92.5000 CS 45 996 3.00000 12 7 307
2013324N07103 2013 94 NI BB LEHAR 2013-11-25 00:00:00 TS 11.8500 92.6000 55 992 newdelhi main 477 477 O___O_________ jtwc_io IO052013 11.7000 92.7000 TS 60 978 0 70 55 55 70 30 30 30 30 1008 200 15 12.0000 92.5000 SCS 55 992 3.50000 15 6 306
2013324N07103 2013 94 NI BB LEHAR 2013-11-25 03:00:00 TS 11.9037 92.2212 55 990 newdelhi main 497 497 P___O_________ IO052013 11.8075 92.4425 TS 62 976 0 72 57 57 72 32 30 30 32 1008 205 15 12.0000 92.0000 SCS 55 990 3.50000 15 7 278
2013324N07103 2013 94 NI BB LEHAR 2013-11-25 06:00:00 TS 11.9500 91.8500 55 988 newdelhi main 503 509 O___O_________ jtwc_io IO052013 11.9000 92.2000 TY 65 974 1 75 60 60 75 35 30 30 35 1008 210 15 12.0000 91.5000 SCS 55 988 3.50000 17 5 281
2013324N07103 2013 94 NI BB LEHAR 2013-11-25 09:00:00 TS 12.0000 91.7250 60 988 newdelhi main 515 494 P___O_________ IO052013 12.0000 91.9500 TY 67 972 1 75 60 60 75 35 30 30 35 1008 210 15 12.0000 91.5000 SCS 60 988 3.50000 17 4 325
2013324N07103 2013 94 NI BB LEHAR 2013-11-25 12:00:00 TS 12.3000 91.6000 60 988 newdelhi main 494 494 O___O_________ jtwc_io IO052013 12.1000 91.7000 TY 70 970 1 75 60 60 75 35 30 30 35 20 20 20 20 1008 210 15 12.5000 91.5000 SCS 60 988 3.50000 17 6 306
2013324N07103 2013 94 NI BB LEHAR 2013-11-25 15:00:00 TS 12.3500 91.2325 60 988 newdelhi main 522 513 P___O_________ IO052013 12.1999 91.4650 TY 72 968 1 77 67 70 80 35 32 32 35 22 20 20 22 1007 210 15 12.5000 91.0000 SCS 60 988 3.50000 17 5 282
2013324N07103 2013 94 NI BB LEHAR 2013-11-25 18:00:00 TS 12.4000 91.1000 55 988 newdelhi main 521 521 O___O_________ jtwc_io IO052013 12.3000 91.2000 TY 75 967 1 80 75 80 85 35 35 35 35 25 20 20 25 1007 210 15 12.5000 91.0000 SCS 55 988 3.50000 17 3 289
2013324N07103 2013 94 NI BB LEHAR 2013-11-25 21:00:00 TS 12.4500 90.9362 65 984 newdelhi main 536 528 P___O_________ IO052013 12.4000 90.8725 TY 75 967 1 85 80 90 90 37 35 35 37 25 20 20 25 1006 180 15 12.5000 91.0000 VSCS 65 984 4.00000 22 6 280
2013324N07103 2013 94 NI BB LEHAR 2013-11-26 00:00:00 TS 12.5000 90.5000 70 982 newdelhi main 559 559 O___O_________ jtwc_io IO052013 12.5000 90.5000 TY 75 967 1 90 85 100 95 40 35 35 40 25 20 20 25 1005 150 15 12.5000 90.5000 VSCS 70 982 4.00000 24 9 277
2013324N07103 2013 94 NI BB LEHAR 2013-11-26 03:00:00 TS 12.5500 90.0537 70 982 newdelhi main 590 590 P___O_________ IO052013 12.6000 90.1075 TY 75 967 1 90 85 100 95 40 35 35 40 25 20 20 25 1005 150 15 12.5000 90.0000 VSCS 70 982 4.00000 24 9 276
2013324N07103 2013 94 NI BB LEHAR 2013-11-26 06:00:00 TS 12.6000 89.6000 70 982 newdelhi main 625 625 O___O_________ jtwc_io IO052013 12.7000 89.7000 TY 75 967 1 90 85 100 95 40 35 35 40 25 20 20 25 1005 150 15 12.5000 89.5000 VSCS 70 982 4.00000 24 9 291
2013324N07103 2013 94 NI BB LEHAR 2013-11-26 09:00:00 TS 12.8962 89.1500 70 982 newdelhi main 649 649 P___O_________ IO052013 12.7924 89.2999 TY 75 967 1 90 85 100 95 40 35 35 40 25 20 20 25 1005 150 15 13.0000 89.0000 VSCS 70 982 4.00000 24 9 292
2013324N07103 2013 94 NI BB LEHAR 2013-11-26 12:00:00 TS 12.9500 88.7000 70 982 newdelhi main 680 680 O___O_________ jtwc_io IO052013 12.9000 88.9000 TY 75 967 1 90 85 100 95 40 35 35 40 25 20 20 25 1005 150 15 13.0000 88.5000 VSCS 70 982 4.00000 24 6 281
2013324N07103 2013 94 NI BB LEHAR 2013-11-26 15:00:00 TS 13.0174 88.5112 70 982 newdelhi main 699 699 P___O_________ IO052013 13.0348 88.5224 TY 72 971 1 87 82 87 87 40 35 35 40 25 20 20 25 1006 160 15 13.0000 88.5000 VSCS 70 982 4.00000 24 7 288
2013324N07103 2013 94 NI BB LEHAR 2013-11-26 18:00:00 TS 13.1500 88.0500 75 980 newdelhi main 713 673 O___O_________ jtwc_io IO052013 13.2000 88.1000 TY 70 975 1 85 80 75 80 40 35 35 40 25 20 20 25 1007 170 15 13.1000 88.0000 VSCS 75 980 4.00000 26 10 287
2013324N07103 2013 94 NI BB LEHAR 2013-11-26 21:00:00 TS 13.3000 87.5363 75 980 newdelhi main 666 612 P___O_________ IO052013 13.4000 87.5725 TY 70 972 1 95 87 87 92 40 35 35 40 25 20 20 25 1007 163 15 13.2000 87.5000 VSCS 75 980 4.00000 26 11 291
2013324N07103 2013 94 NI BB LEHAR 2013-11-27 00:00:00 TS 13.5500 87.0000 75 980 newdelhi main 605 562 O___O_________ jtwc_io IO052013 13.6000 87.0000 TY 70 970 1 105 95 100 105 40 35 35 40 25 20 20 25 1007 157 15 13.5000 87.0000 VSCS 75 980 4.00000 26 11 288
2013324N07103 2013 94 NI BB LEHAR 2013-11-27 03:00:00 TS 13.6400 86.4600 75 980 newdelhi main 562 498 P___O_________ IO052013 13.7801 86.4201 TY 67 972 1 105 95 100 105 40 35 35 40 1007 157 15 13.5000 86.5000 VSCS 75 980 4.00000 26 11 291
2013324N07103 2013 94 NI BB LEHAR 2013-11-27 06:00:00 TS 13.9500 85.9500 70 982 newdelhi main 492 450 O___O_________ jtwc_io IO052013 13.9000 85.9000 TY 65 974 1 105 95 100 105 40 35 35 40 1007 157 15 14.0000 86.0000 VSCS 70 982 4.00000 24 10 289
2013324N07103 2013 94 NI BB LEHAR 2013-11-27 09:00:00 TS 13.9536 85.5211 65 984 newdelhi main 450 402 P___O_________ IO052013 13.9072 85.5423 TY 65 974 1 105 95 100 105 35 27 27 35 1007 157 15 14.0000 85.5000 VSCS 65 984 4.00000 22 9 287
2013324N07103 2013 94 NI BB LEHAR 2013-11-27 12:00:00 TS 14.2000 85.1000 55 988 newdelhi main 402 364 O___O_________ jtwc_io IO052013 13.9000 85.2000 TY 65 974 1 105 95 100 105 30 20 20 30 1007 157 15 14.5000 85.0000 SCS 55 988 3.50000 17 9 288
2013324N07103 2013 94 NI BB LEHAR 2013-11-27 15:00:00 TS 14.2312 84.6187 55 988 newdelhi main 364 304 P___O_________ IO052013 13.9624 84.7374 TY 57 979 0 82 72 75 82 1007 158 25 14.5000 84.5000 SCS 55 988 3.50000 17 10 290
2013324N07103 2013 94 NI BB LEHAR 2013-11-27 18:00:00 TS 14.5500 84.1000 45 996 newdelhi main 295 254 O___O_________ jtwc_io IO052013 14.1000 84.2000 TS 50 985 0 60 50 50 60 1007 160 35 15.0000 84.0000 CS 45 996 3.00000 10 11 293
2013324N07103 2013 94 NI BB LEHAR 2013-11-27 21:00:00 TS 14.6675 83.5501 40 998 newdelhi main 254 168 P___O_________ IO052013 14.3351 83.6002 TS 45 989 0 60 50 50 60 1007 160 37 15.0000 83.5000 CS 40 998 2.50000 8 16 288
2013324N07103 2013 94 NI BB LEHAR 2013-11-28 00:00:00 TS 15.0500 82.5000 30 1000 newdelhi main 159 130 O___O_________ jtwc_io IO052013 14.6000 83.0000 TS 40 993 0 60 50 50 60 1007 160 40 15.5000 82.0000 DD 30 1000 2.00000 5 15 293
2013324N07103 2013 94 NI BB LEHAR 2013-11-28 03:00:00 TS 15.2537 82.0887 30 1000 newdelhi main 119 92 P___O_________ IO052013 14.8073 82.4773 TS 37 994 0 60 50 50 60 1008 160 37 15.7000 81.7000 DD 30 1000 2.00000 5 8 288
2013324N07103 2013 94 NI BB LEHAR 2013-11-28 06:00:00 TS 15.3000 81.7000 30 1000 newdelhi main 92 61 O___O_________ jtwc_io IO052013 15.0000 82.0000 TS 35 996 0 60 50 50 60 1009 160 35 15.7000 81.3000 DD 30 1000 2.00000 5 7 286
2013324N07103 2013 94 NI BB LEHAR 2013-11-28 09:00:00 TS 15.4532 81.3717 25 1002 newdelhi main 54 30 P___O_________ IO052013 15.2298 81.5576 TS 35 996 0 1009 160 37 15.9000 81.0000 D 25 1002 0.00000 4 7 289
2013324N07103 2013 94 NI BB LEHAR 2013-11-28 12:00:00 TS 15.5200 81.0400 20 1004 newdelhi main 24 22 O___O_________ jtwc_io IO052013 15.4000 81.1000 TS 35 996 0 1010 160 40 16.0000 80.8000 D 20 1004 0.00000 3 8 264
2013324N07103 2013 94 NI BB LEHAR 2013-11-28 15:00:00 TS 15.3774 80.5718 main 39 0 P_____________ IO052013 15.3774 80.5718 TS 30 1000 -1 1009 160 40 10 263
2013324N07103 2013 94 NI BB LEHAR 2013-11-28 18:00:00 TS 15.4000 80.0000 main 0 0 O_____________ jtwc_io IO052013 15.4000 80.0000 TD 25 1004 -1 1008 160 40 12 285
2013324N07103 2013 94 NI BB LEHAR 2013-11-28 21:00:00 TS 15.6703 79.4060 main 0 0 P_____________ IO052013 15.6703 79.4060 TD 22 1005 -1 1008 160 40 14 301
2013324N07103 2013 94 NI BB LEHAR 2013-11-29 00:00:00 NR 16.1000 78.8000 main 0 O_____________ jtwc_io IO052013 16.1000 78.8000 DB 20 1007 -3 1008 160 40 15 306

デジタル台風データ・検索

IBTrACS Databaseについて

本データベースは、米国NOAAが公開する1842年以降の世界の熱帯低気圧のベストトラックデータアーカイブInternational Best Track Archive for Climate Stewardship (IBTrACS)を、ウェブで閲覧しやすい形式に変換したものです。

最終更新日:2021-11-26